• Join FlightAware (Why Join?)
  • Login
  • US Flag 
03:29AM EDT


 

Airport Tracker/Info


-or-


 

Live Flight TrackerFlight Track Log ✈ SWA2147 ✈ 23-Apr-2013 ✈ KPHX - KMDW

Flight Track Log - Related Links

Times and Time Zones

All times are in EDT time to prevent confusion due to time zone crossing. See the SWA2147 flight status page for this flight to view local times or setup timezone preferences in your user account.

Time Position Orientation Groundspeed Altitude Reporting Facility
EDT Latitude Longitude Course Direction KTS MPH feet Rate Location/Type
06:12PM 33.4333 -112.0333 268° West 176 203 2,000  Level Phoenix TRACON
06:13PM 33.4325 -112.0672 268° West 179 206 2,700 1,860 Climbing Albuquerque Center
06:14PM 33.4353 -112.1433 273° West 222 255 5,100 2,280 Climbing Albuquerque Center
06:15PM 33.4778 -112.1875 319° Northwest 262 302 7,500 2,460 Climbing Albuquerque Center
06:16PM 33.5517 -112.1636 15° North 276 318 10,300 2,160 Climbing Albuquerque Center
06:17PM 33.6064 -112.0892 49° Northeast 351 404 12,000 2,340 Climbing Albuquerque Center
06:18PM 33.6206 -111.9447 83° East 369 425 15,200 2,880 Climbing Albuquerque Center
06:19PM 33.6336 -111.8206 83° East 378 435 18,000 2,220 Climbing Albuquerque Center
06:20PM 33.6467 -111.6922 83° East 390 449 19,900 1,980 Climbing Albuquerque Center
06:21PM 33.6600 -111.5567 83° East 411 473 22,200 1,860 Climbing Albuquerque Center
06:22PM 33.6739 -111.4156 83° East 428 493 23,800 1,500 Climbing Albuquerque Center
06:23PM 33.6983 -111.2383 81° East 452 520 25,400 1,500 Climbing Albuquerque Center
06:24PM 33.7492 -111.0981 66° East 460 529 27,000 1,500 Climbing Albuquerque Center
06:25PM 33.7986 -110.9561 67° East 463 533 28,600 1,500 Climbing Albuquerque Center
06:26PM 33.8497 -110.8131 67° East 467 537 30,100 840 Climbing Albuquerque Center
06:27PM 33.9008 -110.6658 67° East 473 544 30,400 720 Climbing Albuquerque Center
06:28PM 33.9683 -110.4769 67° East 504 580 31,700 1,140 Climbing Albuquerque Center
06:29PM 34.0172 -110.3381 67° East 512 589 32,800 1,140 Climbing Albuquerque Center
06:30PM 34.0822 -110.1478 68° East 515 593 34,100 1,020 Climbing Albuquerque Center
06:31PM 34.1347 -109.9983 67° East 512 589 35,000 420 Climbing Albuquerque Center
06:32PM 34.1953 -109.8200 68° East 514 592 35,000  Level Albuquerque Center
06:33PM 34.2472 -109.6683 67° East 513 590 35,000  Level Albuquerque Center
06:34PM 34.3072 -109.4911 68° East 511 588 35,000  Level Albuquerque Center
06:35PM 34.3586 -109.3403 68° East 509 586 35,000  Level Albuquerque Center
06:36PM 34.4100 -109.1869 68° East 512 589 35,000  Level Albuquerque Center
06:38PM 34.4636 -109.0078 70° East 508 585 35,000  Level Albuquerque Center
06:39PM 34.5067 -108.8506 72° East 511 588 35,000  Level Albuquerque Center
06:40PM 34.5575 -108.6650 72° East 516 594 35,000  Level Albuquerque Center
06:41PM 34.6008 -108.5039 72° East 521 600 35,000  Level Albuquerque Center
06:42PM 34.6450 -108.3389 72° East 524 603 35,000  Level Albuquerque Center
06:43PM 34.6908 -108.1708 72° East 525 604 35,000  Level Albuquerque Center
06:44PM 34.7447 -107.9694 72° East 524 603 35,000  Level Albuquerque Center
06:45PM 34.7894 -107.8019 72° East 521 600 35,000  Level Albuquerque Center
06:46PM 34.8339 -107.6319 72° East 526 605 35,000  Level Albuquerque Center
06:47PM 34.8775 -107.4636 72° East 524 603 35,000  Level Albuquerque Center
06:48PM 34.9217 -107.2936 72° East 526 605 35,000  Level Albuquerque Center
06:49PM 34.9722 -107.1042 72° East 532 612 35,000  Level Albuquerque Center
06:50PM 35.0133 -106.9414 73° East 528 608 35,000  Level Albuquerque Center
06:51PM 35.0692 -106.7603 69° East 513 590 35,000  Level Albuquerque Center
06:52PM 35.1367 -106.6086 61° Northeast 526 605 35,000  Level Albuquerque Center
06:53PM 35.2047 -106.4525 62° Northeast 536 617 35,000  Level Albuquerque Center
06:54PM 35.2744 -106.2956 61° Northeast 531 611 35,000  Level Albuquerque Center
06:55PM 35.3558 -106.1056 62° Northeast 523 602 35,000  Level Albuquerque Center
06:56PM 35.4286 -105.9450 61° Northeast 539 620 35,000  Level Albuquerque Center
06:57PM 35.5008 -105.7803 62° Northeast 534 615 35,000  Level Albuquerque Center
06:58PM 35.5697 -105.6164 63° Northeast 535 616 35,000  Level Albuquerque Center
06:59PM 35.6392 -105.4539 62° Northeast 532 612 35,000  Level Albuquerque Center
07:00PM 35.7097 -105.2869 62° Northeast 541 623 35,000  Level Albuquerque Center
07:01PM 35.7786 -105.1225 63° Northeast 538 619 35,000  Level Albuquerque Center
07:02PM 35.8481 -104.9586 62° Northeast 533 613 35,000  Level Albuquerque Center
07:03PM 35.9314 -104.7614 62° Northeast 546 628 35,000  Level Albuquerque Center
07:04PM 36.0008 -104.5961 63° Northeast 539 620 35,000  Level Albuquerque Center
07:05PM 36.0681 -104.4328 63° Northeast 533 613 35,000  Level Albuquerque Center
07:06PM 36.1367 -104.2656 63° Northeast 535 616 35,000  Level Albuquerque Center
07:07PM 36.2064 -104.0997 62° Northeast 537 618 35,000  Level Albuquerque Center
07:08PM 36.2739 -103.9375 63° Northeast 529 609 35,000  Level Albuquerque Center
07:09PM 36.3411 -103.7736 63° Northeast 527 606 35,000  Level Albuquerque Center
07:10PM 36.4078 -103.6097 63° Northeast 526 605 35,000  Level Albuquerque Center
07:12PM 36.4736 -103.4469 63° Northeast 524 603 35,000  Level Albuquerque Center
07:13PM 36.5386 -103.2817 64° Northeast 525 604 35,000  Level Albuquerque Center
07:15PM 36.6758 -102.9381 63° Northeast 527 606 35,000  Level Albuquerque Center
07:16PM 36.7483 -102.7533 64° Northeast 530 610 35,000  Level Albuquerque Center
07:17PM 36.8100 -102.5947 64° Northeast 532 612 35,000  Level Albuquerque Center
07:18PM 36.8764 -102.4231 64° Northeast 542 624 35,000  Level Albuquerque Center
07:19PM 36.9433 -102.2569 63° Northeast 539 620 35,000  Level Albuquerque Center
07:20PM 37.0153 -102.0689 64° Northeast 538 619 35,000  Level Albuquerque Center
07:21PM 37.0781 -101.9078 64° Northeast 538 619 35,000  Level Albuquerque Center
07:22PM 37.1492 -101.7194 65° Northeast 538 619 35,000  Level Albuquerque Center
07:23PM 37.2189 -101.5269 65° Northeast 540 621 35,000  Level Kansas City Center
07:24PM 37.2911 -101.3383 64° Northeast 538 619 35,000  Level Kansas City Center
07:25PM 37.3522 -101.1753 65° Northeast 541 623 35,000  Level Kansas City Center
07:26PM 37.4244 -100.9842 65° Northeast 545 627 35,000  Level Kansas City Center
07:27PM 37.4839 -100.8211 65° Northeast 544 626 35,000  Level Kansas City Center
07:28PM 37.5467 -100.6544 65° Northeast 546 628 35,000  Level Kansas City Center
07:29PM 37.6150 -100.4669 65° Northeast 545 627 35,000  Level Kansas City Center
07:30PM 37.6850 -100.2742 65° Northeast 544 626 35,000  Level Kansas City Center
07:31PM 37.7458 -100.1078 65° Northeast 545 627 35,000  Level Kansas City Center
07:32PM 37.8161 -99.9136 65° Northeast 545 627 35,000  Level Kansas City Center
07:33PM 37.8750 -99.7467 66° East 544 626 35,000  Level Kansas City Center
07:34PM 37.9347 -99.5800 66° East 544 626 35,000  Level Kansas City Center
07:35PM 37.9958 -99.4000 67° East 546 628 35,000  Level Kansas City Center
07:36PM 38.0569 -99.2236 66° East 545 627 35,000  Level Kansas City Center
07:37PM 38.1200 -99.0464 66° East 549 632 35,000  Level Kansas City Center
07:38PM 38.1950 -98.8347 66° East 548 631 35,000  Level Kansas City Center
07:39PM 38.2594 -98.6547 65° Northeast 551 634 35,000  Level Kansas City Center
07:41PM 38.3208 -98.4758 66° East 548 631 35,000  Level Kansas City Center
07:42PM 38.3808 -98.2967 67° East 547 629 35,000  Level Kansas City Center
07:43PM 38.4419 -98.1178 66° East 546 628 35,000  Level Kansas City Center
07:44PM 38.5017 -97.9372 67° East 547 629 35,000  Level Kansas City Center
07:45PM 38.5417 -97.7494 75° East 544 626 35,000  Level Kansas City Center
07:46PM 38.5808 -97.5608 75° East 547 629 35,000  Level Kansas City Center
07:47PM 38.6186 -97.3733 75° East 544 626 35,000  Level Kansas City Center
07:48PM 38.6569 -97.1856 75° East 544 626 35,000  Level Kansas City Center
07:49PM 38.7147 -96.9658 71° East 542 624 35,000  Level Kansas City Center
07:50PM 38.7628 -96.7822 71° East 543 625 35,000  Level Kansas City Center
07:51PM 38.8103 -96.5992 72° East 542 624 35,000  Level Kansas City Center
07:52PM 38.8628 -96.4294 68° East 543 625 35,000  Level Kansas City Center
07:53PM 38.9278 -96.2292 67° East 544 626 35,000  Level Kansas City Center
07:54PM 38.9786 -96.0572 69° East 538 619 35,000  Level Kansas City Center
07:55PM 39.0397 -95.8556 69° East 542 624 35,000  Level Kansas City Center
07:56PM 39.0928 -95.6806 69° East 548 631 35,000  Level Kansas City Center
07:57PM 39.1536 -95.4792 69° East 540 621 35,000  Level Kansas City Center
07:58PM 39.2075 -95.2967 69° East 541 623 35,000  Level Kansas City Center
07:59PM 39.2644 -95.1014 69° East 540 621 35,000  Level Kansas City Center
08:00PM 39.3108 -94.9450 69° East 538 619 35,000  Level Kansas City Center
08:01PM 39.3692 -94.7447 69° East 533 613 35,000  Level Kansas City Center
08:02PM 39.4200 -94.5703 69° East 535 616 35,000  Level Kansas City Center
08:03PM 39.4792 -94.3667 69° East 540 621 35,000  Level Kansas City Center
08:04PM 39.5286 -94.1936 70° East 536 617 35,000  Level Kansas City Center
08:05PM 39.5786 -94.0189 70° East 538 619 35,000  Level Kansas City Center
08:06PM 39.6358 -93.8164 70° East 537 618 35,000  Level Kansas City Center
08:07PM 39.6867 -93.6375 70° East 544 626 35,000  Level Kansas City Center
08:08PM 39.7367 -93.4542 70° East 543 625 35,000  Level Kansas City Center
08:09PM 39.7875 -93.2761 70° East 535 616 35,000  Level Kansas City Center
08:10PM 39.8464 -93.0575 71° East 539 620 35,000  Level Kansas City Center
08:11PM 39.8964 -92.8778 70° East 537 618 35,000  Level Kansas City Center
08:12PM 39.9450 -92.6953 71° East 541 623 35,000  Level Kansas City Center
08:13PM 39.9922 -92.5119 71° East 544 626 35,000  Level Kansas City Center
08:14PM 40.0406 -92.3333 70° East 536 617 35,000  Level Kansas City Center
08:15PM 40.0983 -92.1167 71° East 536 617 35,000  Level Kansas City Center
08:16PM 40.1456 -91.9350 71° East 535 616 35,000  Level Kansas City Center
08:17PM 40.1925 -91.7533 71° East 534 615 35,000 -480 Level Kansas City Center
08:19PM 40.2397 -91.5717 71° East 534 615 34,100 -900 Descending Kansas City Center
08:20PM 40.2864 -91.3853 72° East 540 621 33,200 -540 Descending Kansas City Center
08:21PM 40.3414 -91.1681 72° East 541 623 33,000 -120 Descending Kansas City Center
08:22PM 40.3894 -90.9819 71° East 541 623 33,000  Level Kansas City Center
08:22PM 40.4167 -90.8706 72° East 538 619 33,000  Level Chicago Center
08:23PM 40.4631 -90.6853 72° East 535 616 33,000 -120 Level Chicago Center
08:24PM 40.5083 -90.5017 72° East 530 610 32,800 -1,260 Descending Chicago Center
08:25PM 40.5553 -90.3192 71° East 528 608 30,500 -2,400 Descending Chicago Center
08:26PM 40.6392 -90.1433 58° Northeast 517 595 27,900 -2,340 Descending Chicago Center
08:27PM 40.7186 -89.9875 56° Northeast 514 592 25,700 -2,520 Descending Chicago Center
08:28PM 40.7950 -89.8347 57° Northeast 503 579 22,700 -2,880 Descending Chicago Center
08:29PM 40.8678 -89.6825 58° Northeast 493 567 19,800 -2,520 Descending Chicago Center
08:30PM 40.9442 -89.5331 56° Northeast 493 567 17,500 -1,620 Descending Chicago Center
08:31PM 41.0333 -89.3631 55° Northeast 468 539 16,500 -960 Descending Chicago Center
08:32PM 41.1000 -89.2297 56° Northeast 438 504 15,600 -960 Descending Chicago Center
08:34PM 41.1639 -89.1000 57° Northeast 430 495 14,600 -1,020 Descending Chicago Center
08:35PM 41.2275 -88.9706 57° Northeast 421 484 13,600 -720 Descending Chicago Center
08:36PM 41.2844 -88.8508 58° Northeast 382 440 13,200 -1,080 Descending Chicago Center
08:37PM 41.3489 -88.7231 56° Northeast 349 402 11,400 -1,740 Descending Chicago Center
08:38PM 41.3981 -88.6206 57° Northeast 333 383 9,700 -1,620 Descending Chicago Center
08:39PM 41.4467 -88.5236 56° Northeast 319 367 8,100 -1,500 Descending Chicago Center
08:40PM 41.4942 -88.4244 57° Northeast 317 365 6,600 -1,080 Descending Chicago Center
08:41PM 41.5392 -88.3322 57° Northeast 302 348 6,000 -480 Descending Chicago Center
08:42PM 41.5672 -88.2333 69° East 288 331 5,700 -420 Descending Chicago Center
08:43PM 41.5761 -88.1294 83° East 280 322 5,200 -480 Descending Chicago Center
08:44PM 41.5819 -88.0267 86° East 276 318 4,800 -540 Descending Chicago Center
08:45PM 41.5844 -87.9058 88° East 272 313 4,100 -900 Descending Chicago Center
08:46PM 41.5842 -87.8064 90° East 270 311 3,000 -540 Descending Chicago Center
08:47PM 41.5814 -87.7231 93° East 244 281 3,000  Level Chicago Center
08:48PM 41.5992 -87.6592 70° East 209 241 3,000 -60 Level Chicago Center
08:49PM 41.6289 -87.6089 52° Northeast 187 215 2,900 -300 Descending Chicago Center
08:50PM 41.6625 -87.5911 22° Northeast 183 211 2,500 -240 Descending Chicago Center
08:51PM 41.7033 -87.6350 321° Northwest 165 190 2,500 -120 Level Chicago Center
08:52PM 41.7167 -87.6667 299° West 161 185 2,400 -600 Descending Chicago TRACON
08:53PM 41.7500 -87.7000 323° Northwest 131 151 1,600 -780 Descending Chicago TRACON
08:54PM 41.7667 -87.7333 304° West 131 151 800 -840 Descending Chicago TRACON